createdAt,value
2023-05-10T00:00:46.112Z,100970.05
2023-05-10T00:01:48.425Z,100969.17
2023-05-10T00:02:50.958Z,100970.87
2023-05-10T00:03:53.510Z,100965.57
2023-05-10T00:04:55.776Z,100968.22
2023-05-10T00:05:58.513Z,100969.05
2023-05-10T00:07:00.739Z,100967.39
2023-05-10T00:08:02.952Z,100967.39
2023-05-10T00:09:05.163Z,100964.74
2023-05-10T00:10:08.432Z,100970.05
2023-05-10T00:11:10.621Z,100962.92
2023-05-10T00:12:12.897Z,100968.22
2023-05-10T00:13:15.145Z,100967.39
2023-05-10T00:14:17.630Z,100963.01
2023-05-10T00:15:20.645Z,100961.19
2023-05-10T00:16:23.168Z,100963.83
2023-05-10T00:17:25.575Z,100967.30
2023-05-10T00:18:28.836Z,100962.00
2023-05-10T00:19:31.158Z,100961.19
2023-05-10T00:20:33.408Z,100956.80
2023-05-10T00:21:36.093Z,100966.52
2023-05-10T00:22:38.397Z,100968.30
2023-05-10T00:23:41.270Z,100963.01
2023-05-10T00:24:44.047Z,100971.83
2023-05-10T00:25:47.477Z,100964.83
2023-05-10T00:26:49.730Z,100964.86
2023-05-10T00:27:51.949Z,100962.92
2023-05-10T00:28:54.116Z,100966.48
2023-05-10T00:29:56.425Z,100968.22
2023-05-10T00:30:58.894Z,100959.36
2023-05-10T00:32:01.200Z,100962.05
2023-05-10T00:33:03.628Z,100958.48
2023-05-10T00:34:05.984Z,100959.31
2023-05-10T00:35:08.807Z,100961.92
2023-05-10T00:36:11.934Z,100962.87
2023-05-10T00:37:14.736Z,100965.48
2023-05-10T00:38:16.971Z,100962.74
2023-05-10T00:39:19.309Z,100961.88
2023-05-10T00:40:21.496Z,100962.74
2023-05-10T00:41:26.098Z,100961.83
2023-05-10T00:42:28.285Z,100956.48
2023-05-10T00:43:30.814Z,100956.53
2023-05-10T00:44:33.581Z,100962.74
2023-05-10T00:45:37.793Z,100953.02
2023-05-10T00:46:40.196Z,100963.52
2023-05-10T00:47:42.736Z,100968.78
2023-05-10T00:48:45.461Z,100959.13
2023-05-10T00:49:47.868Z,100958.22
2023-05-10T00:50:50.173Z,100962.53
2023-05-10T00:51:53.098Z,100961.62
2023-05-10T00:52:56.385Z,100958.97
2023-05-10T00:53:59.390Z,100956.31
2023-05-10T00:55:02.416Z,100959.84
2023-05-10T00:56:04.997Z,100964.31
2023-05-10T00:57:07.242Z,100961.62
2023-05-10T00:58:09.523Z,100956.36
2023-05-10T00:59:11.923Z,100957.23
2023-05-10T01:00:15.027Z,100958.09
2023-05-10T01:01:18.691Z,100964.27
2023-05-10T01:02:21.240Z,100956.36
2023-05-10T01:03:23.820Z,100965.18
2023-05-10T01:04:26.231Z,100964.27
2023-05-10T01:05:28.560Z,100966.88
2023-05-10T01:06:31.566Z,100962.44
2023-05-10T01:07:33.750Z,100964.17
2023-05-10T01:08:36.877Z,100961.58
2023-05-10T01:09:39.388Z,100962.44
2023-05-10T01:10:43.484Z,100958.97
2023-05-10T01:11:46.443Z,100959.84
2023-05-10T01:12:49.225Z,100962.53
2023-05-10T01:13:55.147Z,100966.00
2023-05-10T01:14:58.211Z,100960.70
2023-05-10T01:16:01.151Z,100963.48
2023-05-10T01:17:05.411Z,100965.09
2023-05-10T01:18:09.557Z,100964.27
2023-05-10T01:19:21.825Z,100963.36
2023-05-10T01:20:25.686Z,100955.36
2023-05-10T01:21:35.049Z,100966.92
2023-05-10T01:22:56.079Z,100957.23
2023-05-10T01:24:18.949Z,100957.23
2023-05-10T01:25:30.854Z,100957.23
2023-05-10T01:27:11.850Z,100957.23
2023-05-10T01:28:47.206Z,100950.11
2023-05-10T01:31:53.792Z,100953.58
2023-05-10T01:33:20.099Z,100955.31
2023-05-10T01:34:25.989Z,100952.66
2023-05-10T01:35:34.847Z,100950.11
2023-05-10T01:38:31.653Z,100954.09
2023-05-10T01:39:52.629Z,100949.36
2023-05-10T01:42:33.366Z,100947.14
2023-05-10T01:43:45.284Z,100948.58
2023-05-10T01:45:17.736Z,100945.02
2023-05-10T01:47:44.795Z,100943.66
2023-05-10T01:48:51.508Z,100955.62
2023-05-10T01:49:55.886Z,100957.35
2023-05-10T01:50:59.263Z,100952.97
2023-05-10T01:52:14.378Z,100952.05
2023-05-10T01:53:20.207Z,100955.62
2023-05-10T01:54:24.504Z,100950.36
2023-05-10T01:55:32.847Z,100950.27
2023-05-10T01:56:38.210Z,100949.41
2023-05-10T01:57:44.167Z,100944.15
2023-05-10T01:58:49.788Z,100944.11
2023-05-10T01:59:53.601Z,100947.67
2023-05-10T02:00:57.994Z,100952.05
2023-05-10T02:02:02.733Z,100950.31
2023-05-10T02:03:08.837Z,100945.02
2023-05-10T02:04:16.390Z,100940.62
2023-05-10T02:05:20.698Z,100946.75
2023-05-10T02:06:24.477Z,100946.84
2023-05-10T02:07:29.405Z,100947.80
2023-05-10T02:08:33.518Z,100945.11
2023-05-10T02:09:38.590Z,100946.02
2023-05-10T02:10:43.078Z,100949.58
2023-05-10T02:11:47.688Z,100943.38
2023-05-10T02:12:53.168Z,100942.50
2023-05-10T02:13:56.741Z,100946.89
2023-05-10T02:15:04.594Z,100946.93
2023-05-10T02:16:08.015Z,100946.93
2023-05-10T02:17:12.042Z,100953.09
2023-05-10T02:18:16.641Z,100950.41
2023-05-10T02:19:20.411Z,100946.98
2023-05-10T02:20:25.201Z,100952.32
2023-05-10T02:21:29.937Z,100952.23
2023-05-10T02:22:33.374Z,100947.80
2023-05-10T02:23:38.151Z,100951.45
2023-05-10T02:24:41.997Z,100954.10
2023-05-10T02:25:45.307Z,100949.67
2023-05-10T02:26:50.171Z,100949.72
2023-05-10T02:27:55.140Z,100956.75
2023-05-10T02:28:58.569Z,100947.06
2023-05-10T02:30:02.116Z,100948.84
2023-05-10T02:31:06.461Z,100950.62
2023-05-10T02:32:10.452Z,100952.37
2023-05-10T02:33:15.257Z,100954.27
2023-05-10T02:34:18.061Z,100956.09
2023-05-10T02:35:23.052Z,100950.84
2023-05-10T02:36:26.750Z,100954.27
2023-05-10T02:37:30.169Z,100957.83
2023-05-10T02:38:35.141Z,100947.27
2023-05-10T02:39:38.692Z,100947.31
2023-05-10T02:40:43.027Z,100949.97
2023-05-10T02:41:49.119Z,100952.62
2023-05-10T02:42:55.027Z,100947.31
2023-05-10T02:44:01.128Z,100944.72
2023-05-10T02:46:16.455Z,100946.16
2023-05-10T02:47:19.487Z,100957.22
2023-05-10T02:48:21.877Z,100951.05
2023-05-10T02:49:24.320Z,100956.27
2023-05-10T02:50:32.619Z,100946.50
2023-05-10T02:51:38.304Z,100945.58
2023-05-10T02:52:46.907Z,100950.09
2023-05-10T02:53:52.030Z,100951.84
2023-05-10T02:54:58.549Z,100952.79
2023-05-10T02:56:04.319Z,100951.92
2023-05-10T02:57:09.745Z,100950.09
2023-05-10T02:58:13.509Z,100953.61
2023-05-10T02:59:15.903Z,100950.09
2023-05-10T03:00:18.534Z,100950.09
2023-05-10T03:01:21.844Z,100959.78
2023-05-10T03:02:25.486Z,100951.84
2023-05-10T03:03:27.994Z,100951.05
2023-05-10T03:04:30.761Z,100960.86
2023-05-10T03:05:33.672Z,100954.61
2023-05-10T03:06:38.017Z,100955.56
2023-05-10T03:07:41.057Z,100957.27
2023-05-10T03:08:44.888Z,100954.61
2023-05-10T03:09:49.656Z,100965.28
2023-05-10T03:11:07.175Z,100955.56
2023-05-10T03:12:16.521Z,100959.12
2023-05-10T03:13:34.327Z,100957.27
2023-05-10T03:14:59.771Z,100955.48
2023-05-10T03:16:25.148Z,100954.69
2023-05-10T03:17:49.704Z,100955.56
2023-05-10T03:19:01.699Z,100960.78
2023-05-10T03:20:07.350Z,100961.65
2023-05-10T03:21:13.290Z,100959.00
2023-05-10T03:22:20.398Z,100959.00
2023-05-10T03:23:32.607Z,100963.55
2023-05-10T03:24:37.165Z,100966.16
2023-05-10T03:25:41.568Z,100964.50
2023-05-10T03:26:45.648Z,100961.86
2023-05-10T03:27:51.678Z,100960.08
2023-05-10T03:28:55.751Z,100960.94
2023-05-10T03:29:58.553Z,100966.23
2023-05-10T03:31:02.830Z,100965.33
2023-05-10T03:32:05.956Z,100957.42
2023-05-10T03:33:08.906Z,100962.77
2023-05-10T03:34:13.549Z,100965.33
2023-05-10T03:35:15.887Z,100963.50
2023-05-10T03:36:19.780Z,100960.03
2023-05-10T03:37:22.328Z,100961.77
2023-05-10T03:38:24.732Z,100961.77
2023-05-10T03:39:27.055Z,100961.73
2023-05-10T03:40:31.207Z,100963.50
2023-05-10T03:41:34.048Z,100959.91
2023-05-10T03:42:36.440Z,100964.38
2023-05-10T03:43:39.234Z,100961.65
2023-05-10T03:44:41.406Z,100965.16
2023-05-10T03:45:44.772Z,100959.91
2023-05-10T03:46:46.944Z,100959.00
2023-05-10T03:47:49.789Z,100968.69
2023-05-10T03:48:52.122Z,100959.83
2023-05-10T03:49:54.449Z,100965.03
2023-05-10T03:50:56.834Z,100964.08
2023-05-10T03:51:59.352Z,100964.08
2023-05-10T03:53:02.503Z,100964.91
2023-05-10T03:54:04.866Z,100964.00
2023-05-10T03:55:08.135Z,100965.61
2023-05-10T03:56:11.403Z,100966.48
2023-05-10T03:57:13.851Z,100966.39
2023-05-10T03:58:16.193Z,100961.88
2023-05-10T03:59:18.940Z,100962.74
2023-05-10T04:00:21.174Z,100967.09
2023-05-10T04:01:25.927Z,100971.52
2023-05-10T04:02:28.310Z,100962.66
2023-05-10T04:03:31.357Z,100963.48
2023-05-10T04:04:33.718Z,100967.91
2023-05-10T04:05:37.556Z,100965.18
2023-05-10T04:06:39.955Z,100969.56
2023-05-10T04:07:42.091Z,100960.83
2023-05-10T04:08:44.422Z,100966.92
2023-05-10T04:09:47.395Z,100965.14
2023-05-10T04:10:49.767Z,100971.27
2023-05-10T04:11:52.004Z,100967.70
2023-05-10T04:12:54.419Z,100970.30
2023-05-10T04:13:56.880Z,100966.65
2023-05-10T04:14:59.083Z,100966.61
2023-05-10T04:16:01.712Z,100973.56
2023-05-10T04:17:03.843Z,100974.39
2023-05-10T04:18:07.971Z,100975.26
2023-05-10T04:19:10.130Z,100974.30
2023-05-10T04:20:13.398Z,100976.03
2023-05-10T04:21:16.189Z,100983.08
2023-05-10T04:22:19.773Z,100976.95
2023-05-10T04:23:23.081Z,100978.69
2023-05-10T04:24:26.184Z,100978.73
2023-05-10T04:25:28.895Z,100969.91
2023-05-10T04:26:31.197Z,100973.34
2023-05-10T04:27:33.537Z,100975.94
2023-05-10T04:28:35.822Z,100980.28
2023-05-10T04:29:38.169Z,100977.59
2023-05-10T04:30:40.525Z,100973.98
2023-05-10T04:31:42.734Z,100977.46
2023-05-10T04:32:45.060Z,100980.94
2023-05-10T04:33:48.484Z,100978.19
2023-05-10T04:34:50.791Z,100976.36
2023-05-10T04:35:52.912Z,100975.35
2023-05-10T04:36:55.558Z,100973.48
2023-05-10T04:37:57.769Z,100977.88
2023-05-10T04:39:00.377Z,100977.83
2023-05-10T04:40:03.514Z,100976.96
2023-05-10T04:41:07.804Z,100977.83
2023-05-10T04:42:10.096Z,100980.44
2023-05-10T04:43:12.934Z,100975.91
2023-05-10T04:44:15.243Z,100984.73
2023-05-10T04:45:17.518Z,100983.81
2023-05-10T04:46:19.830Z,100984.73
2023-05-10T04:47:22.248Z,100987.38
2023-05-10T04:48:24.423Z,100988.30
2023-05-10T04:49:26.771Z,100982.17
2023-05-10T04:50:29.331Z,100990.22
2023-05-10T04:51:31.599Z,100984.88
2023-05-10T04:52:33.833Z,100986.61
2023-05-10T04:53:36.037Z,100990.13
2023-05-10T04:54:38.129Z,100986.56
2023-05-10T04:55:40.160Z,100988.39
2023-05-10T04:56:42.345Z,100990.13
2023-05-10T04:57:44.670Z,100984.77
2023-05-10T04:58:47.066Z,100989.22
2023-05-10T04:59:50.684Z,100987.48
2023-05-10T05:00:53.695Z,100983.86
2023-05-10T05:01:56.868Z,100989.22
2023-05-10T05:02:59.253Z,100988.34
2023-05-10T05:04:01.816Z,100987.48
2023-05-10T05:05:04.411Z,100985.64
2023-05-10T05:06:07.467Z,100990.95
2023-05-10T05:07:09.569Z,100989.22
2023-05-10T05:08:12.254Z,100990.95
2023-05-10T05:09:15.011Z,100983.91
2023-05-10T05:10:17.532Z,100991.81
2023-05-10T05:11:20.089Z,100990.91
2023-05-10T05:12:22.428Z,100989.94
2023-05-10T05:13:25.900Z,100989.02
2023-05-10T05:14:28.688Z,100992.46
2023-05-10T05:15:31.548Z,100988.89
2023-05-10T05:16:34.010Z,100988.80
2023-05-10T05:17:36.982Z,100984.31
2023-05-10T05:18:39.579Z,100988.70
2023-05-10T05:19:42.362Z,100992.17
2023-05-10T05:20:44.606Z,100991.21
2023-05-10T05:21:47.120Z,100991.16
2023-05-10T05:22:49.604Z,100988.33
2023-05-10T05:23:51.869Z,100993.59
2023-05-10T05:24:58.218Z,100990.02
2023-05-10T05:26:00.787Z,100985.48
2023-05-10T05:27:03.711Z,100982.78
2023-05-10T05:28:05.902Z,100984.43
2023-05-10T05:29:08.592Z,100982.55
2023-05-10T05:30:11.636Z,100985.15
2023-05-10T05:31:15.863Z,100985.05
2023-05-10T05:32:18.040Z,100987.66
2023-05-10T05:33:20.232Z,100984.90
2023-05-10T05:34:22.460Z,100982.11
2023-05-10T05:35:25.080Z,100975.78
2023-05-10T05:36:27.784Z,100977.47
2023-05-10T05:37:29.963Z,100979.20
2023-05-10T05:38:32.685Z,100975.52
2023-05-10T05:39:37.003Z,100977.13
2023-05-10T05:40:39.397Z,100988.51
2023-05-10T05:41:41.565Z,100985.75
2023-05-10T05:42:43.911Z,100977.68
2023-05-10T05:43:45.860Z,100984.59
2023-05-10T05:44:48.056Z,100979.17
2023-05-10T05:45:50.272Z,100982.63
2023-05-10T05:46:52.543Z,100981.65
2023-05-10T05:47:55.266Z,100976.28
2023-05-10T05:49:00.712Z,100980.67
2023-05-10T05:50:07.793Z,100981.55
2023-05-10T05:51:10.586Z,100983.33
2023-05-10T05:52:17.038Z,100977.16
2023-05-10T05:53:25.303Z,100988.75
2023-05-10T05:54:30.509Z,100990.54
2023-05-10T05:55:38.591Z,100989.63
2023-05-10T05:56:44.399Z,100982.57
2023-05-10T05:57:50.726Z,100984.31
2023-05-10T05:58:54.959Z,100986.15
2023-05-10T05:59:59.653Z,100991.36
2023-05-10T06:01:04.439Z,100990.44
2023-05-10T06:02:07.765Z,100991.30
2023-05-10T06:03:13.186Z,100985.98
2023-05-10T06:04:17.918Z,100982.33
2023-05-10T06:05:23.750Z,100983.19
2023-05-10T06:06:31.352Z,100985.80
2023-05-10T06:07:37.245Z,100984.01
2023-05-10T06:08:44.358Z,100982.16
2023-05-10T06:09:47.998Z,100987.42
2023-05-10T06:10:52.336Z,100985.69
2023-05-10T06:11:55.081Z,100980.32
2023-05-10T06:12:59.904Z,100989.16
2023-05-10T06:14:04.693Z,100984.66
2023-05-10T06:15:09.288Z,100989.05
2023-05-10T06:16:19.406Z,100981.89
2023-05-10T06:17:25.924Z,100984.47
2023-05-10T06:19:57.817Z,100984.41
2023-05-10T06:21:07.917Z,100981.64
2023-05-10T06:22:14.673Z,100984.30
2023-05-10T06:23:20.902Z,100985.11
2023-05-10T06:24:29.501Z,100986.91
2023-05-10T06:25:35.083Z,100985.98
2023-05-10T06:26:38.488Z,100989.45
2023-05-10T06:27:41.217Z,100976.11
2023-05-10T06:28:44.026Z,100984.95
2023-05-10T06:29:46.779Z,100983.94
2023-05-10T06:30:51.533Z,100983.83
2023-05-10T06:31:58.207Z,100981.17
2023-05-10T06:33:03.366Z,100981.12
2023-05-10T06:34:17.500Z,100982.80
2023-05-10T06:35:25.216Z,100984.53
2023-05-10T06:36:30.852Z,100986.16
2023-05-10T06:37:34.506Z,100987.75
2023-05-10T06:38:37.127Z,100987.69
2023-05-10T06:39:44.429Z,100987.58
2023-05-10T06:40:47.037Z,100986.59
2023-05-10T06:41:56.303Z,100989.14
2023-05-10T06:42:59.957Z,100981.89
2023-05-10T06:44:03.587Z,100981.60
2023-05-10T06:45:12.186Z,100986.66
2023-05-10T06:46:14.652Z,100983.77
2023-05-10T06:47:19.823Z,100977.28
2023-05-10T06:48:24.552Z,100979.67
2023-05-10T06:49:29.955Z,100983.84
2023-05-10T06:50:35.773Z,100983.56
2023-05-10T06:51:40.258Z,100986.91
2023-05-10T06:52:47.007Z,100985.77
2023-05-10T06:53:53.380Z,100986.45
2023-05-10T06:54:57.440Z,100988.12
2023-05-10T06:56:05.781Z,100982.69
2023-05-10T06:57:23.352Z,100992.25
2023-05-10T06:58:18.421Z,100984.14
2023-05-10T06:59:25.177Z,100995.41
2023-05-10T07:00:30.217Z,100983.77
2023-05-10T07:01:38.398Z,100988.93
2023-05-10T07:02:42.564Z,100988.80
2023-05-10T07:03:49.072Z,100985.99
2023-05-10T07:04:53.732Z,100981.41
2023-05-10T07:06:06.307Z,100982.11
2023-05-10T07:07:14.131Z,100988.17
2023-05-10T07:08:17.602Z,100982.72
2023-05-10T07:09:22.224Z,100986.93
2023-05-10T07:10:26.705Z,100985.84
2023-05-10T07:11:30.430Z,100992.70
2023-05-10T07:12:33.749Z,100991.55
2023-05-10T07:13:40.626Z,100983.36
2023-05-10T07:14:45.422Z,100985.83
2023-05-10T07:15:49.210Z,100988.30
2023-05-10T07:16:58.279Z,100979.20
2023-05-10T07:18:07.876Z,100987.86
2023-05-10T07:19:12.666Z,100989.47
2023-05-10T07:20:19.430Z,100984.83
2023-05-10T07:21:25.937Z,100986.43
2023-05-10T07:22:33.840Z,100988.03
2023-05-10T07:23:36.249Z,100983.43
2023-05-10T07:24:40.361Z,100986.72
2023-05-10T07:27:00.155Z,100984.13
2023-05-10T07:28:02.511Z,100988.05
2023-05-10T07:29:04.679Z,100987.88
2023-05-10T07:30:08.466Z,100982.40
2023-05-10T07:31:10.702Z,100986.80
2023-05-10T07:32:13.972Z,100988.53
2023-05-10T07:33:16.761Z,100984.00
2023-05-10T07:34:19.916Z,100994.53
2023-05-10T07:35:22.232Z,100989.02
2023-05-10T07:36:24.434Z,100985.41
2023-05-10T07:37:26.977Z,100990.61
2023-05-10T07:38:29.330Z,100997.82
2023-05-10T07:39:32.496Z,100981.95
2023-05-10T07:40:34.864Z,100990.05
2023-05-10T07:41:36.820Z,100991.93
2023-05-10T07:42:39.246Z,100989.33
2023-05-10T07:43:41.533Z,100989.33
2023-05-10T07:44:43.603Z,100988.53
2023-05-10T07:45:46.366Z,100985.87
2023-05-10T07:46:48.580Z,100986.88
2023-05-10T07:47:51.900Z,100991.34
2023-05-10T07:48:54.125Z,100979.80
2023-05-10T07:49:56.388Z,100989.47
2023-05-10T07:50:59.034Z,100989.47
2023-05-10T07:52:01.544Z,100984.94
2023-05-10T07:53:03.740Z,100990.20
2023-05-10T07:54:06.236Z,100994.59
2023-05-10T07:55:09.360Z,100985.73
2023-05-10T07:56:29.000Z,100987.46
2023-05-10T07:57:31.189Z,100990.99
2023-05-10T07:58:33.314Z,100976.62
2023-05-10T07:59:35.396Z,100980.08
2023-05-10T08:00:37.924Z,100984.41
2023-05-10T08:01:40.508Z,100978.07
2023-05-10T08:02:43.240Z,100979.80
2023-05-10T08:03:45.674Z,100977.06
2023-05-10T08:04:48.624Z,100968.98
2023-05-10T08:05:51.392Z,100973.31
2023-05-10T08:06:53.589Z,100973.21
2023-05-10T08:07:55.750Z,100973.87
2023-05-10T08:08:58.033Z,100973.58
2023-05-10T08:09:59.995Z,100969.69
2023-05-10T08:11:02.768Z,100971.12
2023-05-10T08:12:05.783Z,100973.40
2023-05-10T08:13:08.149Z,100968.63
2023-05-10T08:14:10.827Z,100973.80
2023-05-10T08:15:13.462Z,100971.91
2023-05-10T08:16:16.278Z,100977.97
2023-05-10T08:17:19.935Z,100968.95
2023-05-10T08:18:23.029Z,100963.45
2023-05-10T08:19:25.798Z,100970.42
2023-05-10T08:20:28.699Z,100968.47
2023-05-10T08:21:31.498Z,100963.05
2023-05-10T08:22:33.581Z,100961.17
2023-05-10T08:23:35.656Z,100963.61
2023-05-10T08:24:37.735Z,100962.48
2023-05-10T08:25:40.040Z,100960.53
2023-05-10T08:26:42.721Z,100968.31
2023-05-10T08:27:45.512Z,100959.20
2023-05-10T08:28:47.591Z,100963.50
2023-05-10T08:29:50.755Z,100959.02
2023-05-10T08:30:53.359Z,100964.21
2023-05-10T08:31:55.687Z,100963.20
2023-05-10T08:32:57.986Z,100962.17
2023-05-10T08:34:00.393Z,100968.23
2023-05-10T08:35:02.687Z,100965.55
2023-05-10T08:36:05.097Z,100960.21
2023-05-10T08:37:07.493Z,100967.17
2023-05-10T08:38:09.590Z,100966.16
2023-05-10T08:39:23.053Z,100966.86
2023-05-10T08:40:16.064Z,100970.41
2023-05-10T08:41:21.220Z,100972.05
2023-05-10T08:42:26.859Z,100966.55
2023-05-10T08:43:30.160Z,100962.83
2023-05-10T08:44:36.272Z,100955.67
2023-05-10T08:45:43.422Z,100961.02
2023-05-10T08:46:47.313Z,100962.75
2023-05-10T08:47:50.742Z,100953.62
2023-05-10T08:48:54.411Z,100955.20
2023-05-10T08:49:59.230Z,100960.19
2023-05-10T08:51:04.088Z,100960.81
2023-05-10T08:52:07.481Z,100964.90
2023-05-10T08:53:15.445Z,100966.47
2023-05-10T08:54:18.649Z,100967.09
2023-05-10T08:55:20.945Z,100965.95
2023-05-10T08:56:23.600Z,100957.77
2023-05-10T08:57:26.513Z,100962.00
2023-05-10T08:58:29.270Z,100959.16
2023-05-10T08:59:31.954Z,100962.63
2023-05-10T09:00:35.026Z,100959.75
2023-05-10T09:01:37.960Z,100957.86
2023-05-10T09:02:41.639Z,100960.45
2023-05-10T09:03:46.607Z,100961.31
2023-05-10T09:04:49.011Z,100956.66
2023-05-10T09:05:51.265Z,100960.98
2023-05-10T09:06:53.739Z,100954.60
2023-05-10T09:07:56.370Z,100954.41
2023-05-10T09:08:59.384Z,100952.67
2023-05-10T09:10:01.956Z,100956.13
2023-05-10T09:11:04.211Z,100953.53
2023-05-10T09:12:09.713Z,100951.72
2023-05-10T09:13:12.193Z,100951.64
2023-05-10T09:14:16.219Z,100952.42
2023-05-10T09:15:19.174Z,100948.38
2023-05-10T09:16:22.533Z,100945.09
2023-05-10T09:17:26.689Z,100949.50
2023-05-10T09:18:33.193Z,100947.61
2023-05-10T09:19:35.753Z,100943.89
2023-05-10T09:20:38.474Z,100937.56
2023-05-10T09:21:41.462Z,100939.13
2023-05-10T09:22:44.300Z,100947.23
2023-05-10T09:23:48.933Z,100943.78
2023-05-10T09:26:22.208Z,100941.38
2023-05-10T09:27:29.960Z,100946.13
2023-05-10T09:28:34.116Z,100944.05
2023-05-10T09:30:54.621Z,100936.33
2023-05-10T09:31:57.581Z,100935.72
2023-05-10T09:33:01.173Z,100932.09
2023-05-10T09:34:03.597Z,100939.09
2023-05-10T09:35:15.152Z,100934.51
2023-05-10T09:36:17.857Z,100933.65
2023-05-10T09:37:24.137Z,100940.90
2023-05-10T09:38:26.276Z,100944.53
2023-05-10T09:41:04.090Z,100938.66
2023-05-10T09:43:17.444Z,100937.27
2023-05-10T09:44:23.268Z,100945.24
2023-05-10T09:45:30.515Z,100938.33
2023-05-10T09:46:37.524Z,100943.69
2023-05-10T09:47:40.102Z,100939.20
2023-05-10T09:48:47.103Z,100935.73
2023-05-10T09:49:53.870Z,100936.80
2023-05-10T09:50:59.014Z,100931.62
2023-05-10T09:52:07.366Z,100942.66
2023-05-10T09:53:09.598Z,100936.36
2023-05-10T09:54:15.121Z,100934.80
2023-05-10T09:55:19.409Z,100932.13
2023-05-10T09:56:34.632Z,100938.55
2023-05-10T09:57:37.055Z,100941.30
2023-05-10T09:58:40.657Z,100941.55
2023-05-10T09:59:46.478Z,100940.77
2023-05-10T10:00:49.488Z,100942.83
2023-05-10T10:01:51.817Z,100938.55
2023-05-10T10:02:58.688Z,100944.92
2023-05-10T10:04:03.582Z,100938.87
2023-05-10T10:05:07.535Z,100941.63
2023-05-10T10:06:18.765Z,100929.28
2023-05-10T10:07:15.117Z,100930.23
2023-05-10T10:08:19.127Z,100931.09
2023-05-10T10:09:21.384Z,100938.37
2023-05-10T10:10:27.788Z,100937.50
2023-05-10T10:11:30.199Z,100933.84
2023-05-10T10:12:32.783Z,100933.97
2023-05-10T10:13:35.166Z,100931.29
2023-05-10T10:14:37.687Z,100932.16
2023-05-10T10:15:40.834Z,100933.69
2023-05-10T10:16:55.469Z,100934.55
2023-05-10T10:17:49.287Z,100930.15
2023-05-10T10:18:51.595Z,100932.82
2023-05-10T10:19:55.966Z,100924.63
2023-05-10T10:21:00.168Z,100928.34
2023-05-10T10:22:02.575Z,100921.26
2023-05-10T10:23:05.411Z,100921.95
2023-05-10T10:24:07.607Z,100922.91
2023-05-10T10:25:12.832Z,100924.72
2023-05-10T10:26:17.495Z,100921.87
2023-05-10T10:27:26.108Z,100920.06
2023-05-10T10:31:26.268Z,100913.15
2023-05-10T10:32:32.266Z,100922.82
2023-05-10T10:33:53.708Z,100920.92
2023-05-10T10:34:56.820Z,100914.71
2023-05-10T10:36:01.975Z,100917.30
2023-05-10T10:37:07.513Z,100917.14
2023-05-10T10:38:09.869Z,100909.11
2023-05-10T10:39:13.478Z,100910.92
2023-05-10T10:40:33.702Z,100914.55
2023-05-10T10:41:41.623Z,100915.41
2023-05-10T10:42:47.942Z,100902.81
2023-05-10T10:43:52.069Z,100910.64
2023-05-10T10:44:57.875Z,100900.72
2023-05-10T10:46:17.453Z,100906.06
2023-05-10T10:47:22.848Z,100903.23
2023-05-10T10:48:25.545Z,100899.52
2023-05-10T10:49:27.871Z,100905.73
2023-05-10T10:50:30.081Z,100898.28
2023-05-10T10:51:32.300Z,100895.52
2023-05-10T10:53:48.829Z,100891.88
2023-05-10T10:55:00.536Z,100900.45
2023-05-10T10:57:25.227Z,100893.25
2023-05-10T10:58:32.248Z,100884.79
2023-05-10T10:59:35.728Z,100890.75
2023-05-10T11:00:39.406Z,100889.62
2023-05-10T11:01:42.331Z,100886.66
2023-05-10T11:02:45.571Z,100894.43
2023-05-10T11:04:00.706Z,100887.86
2023-05-10T11:05:26.522Z,100880.39
2023-05-10T11:06:34.264Z,100879.09
2023-05-10T11:07:36.608Z,100886.65
2023-05-10T11:08:42.862Z,100883.79
2023-05-10T11:09:48.437Z,100885.52
2023-05-10T11:11:04.588Z,100880.93
2023-05-10T11:12:09.849Z,100869.44
2023-05-10T11:13:13.270Z,100877.48
2023-05-10T11:14:20.070Z,100882.66
2023-05-10T11:15:36.852Z,100883.47
2023-05-10T11:16:44.151Z,100878.76
2023-05-10T11:17:49.353Z,100872.36
2023-05-10T11:19:04.229Z,100875.81
2023-05-10T11:20:16.018Z,100878.30
2023-05-10T11:21:24.038Z,100871.99
2023-05-10T11:22:28.170Z,100873.50
2023-05-10T11:24:01.854Z,100876.77
2023-05-10T11:25:07.241Z,100877.55
2023-05-10T11:26:12.458Z,100872.09
2023-05-10T11:27:16.556Z,100873.91
2023-05-10T11:28:19.536Z,100876.59
2023-05-10T11:29:24.625Z,100878.31
2023-05-10T11:30:29.425Z,100876.41
2023-05-10T11:31:36.150Z,100873.73
2023-05-10T11:32:41.190Z,100870.00
2023-05-10T11:33:47.042Z,100870.83
2023-05-10T11:34:49.538Z,100868.92
2023-05-10T11:35:52.332Z,100876.20
2023-05-10T11:36:56.492Z,100877.92
2023-05-10T11:37:58.970Z,100877.05
2023-05-10T11:39:01.492Z,100878.88
2023-05-10T11:40:04.041Z,100875.45
2023-05-10T11:41:08.133Z,100881.77
2023-05-10T11:42:12.435Z,100866.83
2023-05-10T11:43:14.767Z,100869.69
2023-05-10T11:44:17.605Z,100877.17
2023-05-10T11:45:20.112Z,100866.64
2023-05-10T11:46:24.869Z,100873.31
2023-05-10T11:47:27.164Z,100879.84
2023-05-10T11:48:30.794Z,100874.80
2023-05-10T11:49:33.207Z,100881.29
2023-05-10T11:50:36.276Z,100875.37
2023-05-10T11:51:39.272Z,100878.13
2023-05-10T11:52:42.819Z,100880.91
2023-05-10T11:53:45.189Z,100881.08
2023-05-10T11:56:06.549Z,100871.05
2023-05-10T11:57:09.366Z,100877.41
2023-05-10T11:58:11.556Z,100878.36
2023-05-10T11:59:15.197Z,100873.18
2023-05-10T12:00:17.796Z,100877.76
2023-05-10T12:01:21.932Z,100875.29
2023-05-10T12:02:24.747Z,100862.94
2023-05-10T12:03:29.021Z,100874.59
2023-05-10T12:04:31.934Z,100877.45
2023-05-10T12:05:34.912Z,100873.91
2023-05-10T12:06:41.688Z,100874.00
2023-05-10T12:07:44.147Z,100872.36
2023-05-10T12:08:48.457Z,100875.98
2023-05-10T12:10:09.113Z,100877.71
2023-05-10T12:11:12.954Z,100875.03
2023-05-10T12:12:18.060Z,100875.03
2023-05-10T12:13:22.191Z,100875.98
2023-05-10T12:14:24.518Z,100872.56
2023-05-10T12:15:28.289Z,100873.42
2023-05-10T12:16:30.763Z,100873.30
2023-05-10T12:17:33.481Z,100868.73
2023-05-10T12:18:39.667Z,100873.13
2023-05-10T12:19:42.001Z,100869.50
2023-05-10T12:20:44.503Z,100869.42
2023-05-10T12:21:47.724Z,100874.77
2023-05-10T12:24:08.638Z,100863.42
2023-05-10T12:25:11.193Z,100870.63
2023-05-10T12:26:14.440Z,100868.91
2023-05-10T12:27:17.210Z,100866.34
2023-05-10T12:28:20.312Z,100866.34
2023-05-10T12:29:22.550Z,100868.16
2023-05-10T12:30:27.206Z,100865.48
2023-05-10T12:31:29.547Z,100868.16
2023-05-10T12:33:50.735Z,100857.59
2023-05-10T12:34:53.020Z,100861.85
2023-05-10T12:35:55.738Z,100863.55
2023-05-10T12:36:58.023Z,100860.78
2023-05-10T12:38:00.350Z,100863.38
2023-05-10T12:39:04.255Z,100863.20
2023-05-10T12:40:09.994Z,100869.24
2023-05-10T12:42:30.532Z,100856.77
2023-05-10T12:43:33.994Z,100860.92